sensor_id;sensor_type;location;lat;lon;timestamp;temperature;humidity
23671;DHT22;12012;51.998;7.614;2023-04-23T00:00:05;11.70;1.00
23671;DHT22;12012;51.998;7.614;2023-04-23T00:02:32;11.70;1.00
23671;DHT22;12012;51.998;7.614;2023-04-23T00:05:03;11.70;1.00
23671;DHT22;12012;51.998;7.614;2023-04-23T00:07:31;11.60;1.00
23671;DHT22;12012;51.998;7.614;2023-04-23T00:09:57;11.50;1.00
23671;DHT22;12012;51.998;7.614;2023-04-23T00:12:23;11.50;1.00
23671;DHT22;12012;51.998;7.614;2023-04-23T00:14:49;11.40;1.00
23671;DHT22;12012;51.998;7.614;2023-04-23T00:17:14;11.40;1.00
23671;DHT22;12012;51.998;7.614;2023-04-23T00:19:40;11.30;1.00
23671;DHT22;12012;51.998;7.614;2023-04-23T00:22:06;11.30;1.00
23671;DHT22;12012;51.998;7.614;2023-04-23T00:24:31;11.20;1.00
23671;DHT22;12012;51.998;7.614;2023-04-23T00:27:00;11.20;99.90
23671;DHT22;12012;51.998;7.614;2023-04-23T00:29:26;11.20;1.00
23671;DHT22;12012;51.998;7.614;2023-04-23T00:31:52;11.20;1.00
23671;DHT22;12012;51.998;7.614;2023-04-23T00:34:17;11.10;99.90
23671;DHT22;12012;51.998;7.614;2023-04-23T00:36:43;11.10;99.90
23671;DHT22;12012;51.998;7.614;2023-04-23T00:39:08;11.10;99.90
23671;DHT22;12012;51.998;7.614;2023-04-23T00:41:35;11.00;99.90
23671;DHT22;12012;51.998;7.614;2023-04-23T00:44:01;11.00;99.90
23671;DHT22;12012;51.998;7.614;2023-04-23T00:46:27;11.00;99.90
23671;DHT22;12012;51.998;7.614;2023-04-23T00:48:54;10.90;99.90
23671;DHT22;12012;51.998;7.614;2023-04-23T00:51:20;10.90;99.90
23671;DHT22;12012;51.998;7.614;2023-04-23T00:53:47;10.80;1.00
23671;DHT22;12012;51.998;7.614;2023-04-23T00:56:13;10.80;99.90
23671;DHT22;12012;51.998;7.614;2023-04-23T00:58:39;10.80;51.40
23671;DHT22;12012;51.998;7.614;2023-04-23T01:01:06;10.80;1.00
23671;DHT22;12012;51.998;7.614;2023-04-23T01:03:34;10.70;1.00
23671;DHT22;12012;51.998;7.614;2023-04-23T01:06:01;10.70;1.00
23671;DHT22;12012;51.998;7.614;2023-04-23T01:08:27;10.70;1.00
23671;DHT22;12012;51.998;7.614;2023-04-23T01:10:54;10.70;1.00
23671;DHT22;12012;51.998;7.614;2023-04-23T01:13:19;10.60;1.00
23671;DHT22;12012;51.998;7.614;2023-04-23T01:15:46;10.60;1.00
23671;DHT22;12012;51.998;7.614;2023-04-23T01:18:14;10.60;99.90
23671;DHT22;12012;51.998;7.614;2023-04-23T01:20:40;10.60;1.00
23671;DHT22;12012;51.998;7.614;2023-04-23T01:23:07;10.50;1.00
23671;DHT22;12012;51.998;7.614;2023-04-23T01:25:33;10.50;1.00
23671;DHT22;12012;51.998;7.614;2023-04-23T01:27:59;10.50;1.00
23671;DHT22;12012;51.998;7.614;2023-04-23T01:30:26;10.50;99.90
23671;DHT22;12012;51.998;7.614;2023-04-23T01:32:53;10.50;1.00
23671;DHT22;12012;51.998;7.614;2023-04-23T01:35:19;10.50;1.00
23671;DHT22;12012;51.998;7.614;2023-04-23T01:37:45;10.50;99.60
23671;DHT22;12012;51.998;7.614;2023-04-23T01:40:11;10.50;1.00
23671;DHT22;12012;51.998;7.614;2023-04-23T01:42:37;10.50;1.00
23671;DHT22;12012;51.998;7.614;2023-04-23T01:45:03;10.50;1.00
23671;DHT22;12012;51.998;7.614;2023-04-23T01:47:32;10.40;1.00
23671;DHT22;12012;51.998;7.614;2023-04-23T01:49:58;10.50;1.00
23671;DHT22;12012;51.998;7.614;2023-04-23T01:52:24;10.40;1.00
23671;DHT22;12012;51.998;7.614;2023-04-23T01:54:49;10.40;1.00
23671;DHT22;12012;51.998;7.614;2023-04-23T01:57:15;10.40;99.90
23671;DHT22;12012;51.998;7.614;2023-04-23T01:59:48;10.40;1.00
23671;DHT22;12012;51.998;7.614;2023-04-23T02:02:14;10.40;99.90
23671;DHT22;12012;51.998;7.614;2023-04-23T02:04:40;10.40;99.90
23671;DHT22;12012;51.998;7.614;2023-04-23T02:07:06;10.40;99.90
23671;DHT22;12012;51.998;7.614;2023-04-23T02:09:33;10.40;99.90
23671;DHT22;12012;51.998;7.614;2023-04-23T02:11:58;10.40;99.90
23671;DHT22;12012;51.998;7.614;2023-04-23T02:14:24;10.40;1.00
23671;DHT22;12012;51.998;7.614;2023-04-23T02:16:50;10.40;1.00
23671;DHT22;12012;51.998;7.614;2023-04-23T02:19:15;10.40;99.90
23671;DHT22;12012;51.998;7.614;2023-04-23T02:21:41;10.40;1.00
23671;DHT22;12012;51.998;7.614;2023-04-23T02:24:07;10.40;99.90
23671;DHT22;12012;51.998;7.614;2023-04-23T02:26:32;10.40;99.90
23671;DHT22;12012;51.998;7.614;2023-04-23T02:28:58;10.40;99.90
23671;DHT22;12012;51.998;7.614;2023-04-23T02:31:23;10.40;99.90
23671;DHT22;12012;51.998;7.614;2023-04-23T02:33:49;10.30;99.90
23671;DHT22;12012;51.998;7.614;2023-04-23T02:36:15;10.40;99.90
23671;DHT22;12012;51.998;7.614;2023-04-23T02:38:41;10.30;99.90
23671;DHT22;12012;51.998;7.614;2023-04-23T02:41:09;10.30;99.90
23671;DHT22;12012;51.998;7.614;2023-04-23T02:43:34;10.40;1.00
23671;DHT22;12012;51.998;7.614;2023-04-23T02:46:00;10.30;99.90
23671;DHT22;12012;51.998;7.614;2023-04-23T02:48:39;10.30;39.90
23671;DHT22;12012;51.998;7.614;2023-04-23T02:51:07;10.30;1.00
23671;DHT22;12012;51.998;7.614;2023-04-23T02:53:32;10.30;99.90
23671;DHT22;12012;51.998;7.614;2023-04-23T02:55:58;10.20;99.90
23671;DHT22;12012;51.998;7.614;2023-04-23T02:58:24;10.20;13.50
23671;DHT22;12012;51.998;7.614;2023-04-23T03:00:49;10.20;99.90
23671;DHT22;12012;51.998;7.614;2023-04-23T03:03:15;10.10;99.90
23671;DHT22;12012;51.998;7.614;2023-04-23T03:05:41;10.10;1.00
23671;DHT22;12012;51.998;7.614;2023-04-23T03:08:06;10.00;1.00
23671;DHT22;12012;51.998;7.614;2023-04-23T03:10:32;10.00;99.90
23671;DHT22;12012;51.998;7.614;2023-04-23T03:12:58;9.90;99.90
23671;DHT22;12012;51.998;7.614;2023-04-23T03:15:24;9.90;99.90
23671;DHT22;12012;51.998;7.614;2023-04-23T03:17:51;9.90;99.90
23671;DHT22;12012;51.998;7.614;2023-04-23T03:20:18;9.80;99.90
23671;DHT22;12012;51.998;7.614;2023-04-23T03:22:44;9.80;99.90
23671;DHT22;12012;51.998;7.614;2023-04-23T03:25:10;9.80;99.90
23671;DHT22;12012;51.998;7.614;2023-04-23T03:27:38;9.80;1.00
23671;DHT22;12012;51.998;7.614;2023-04-23T03:30:04;9.70;1.00
23671;DHT22;12012;51.998;7.614;2023-04-23T03:32:32;9.70;1.00
23671;DHT22;12012;51.998;7.614;2023-04-23T03:34:57;9.70;99.90
23671;DHT22;12012;51.998;7.614;2023-04-23T03:37:23;9.70;1.00
23671;DHT22;12012;51.998;7.614;2023-04-23T03:39:48;9.70;1.00
23671;DHT22;12012;51.998;7.614;2023-04-23T03:42:14;9.70;1.00
23671;DHT22;12012;51.998;7.614;2023-04-23T03:44:40;9.70;61.30
23671;DHT22;12012;51.998;7.614;2023-04-23T03:47:06;9.70;99.90
23671;DHT22;12012;51.998;7.614;2023-04-23T03:49:31;9.70;29.50
23671;DHT22;12012;51.998;7.614;2023-04-23T03:51:57;9.70;1.00
23671;DHT22;12012;51.998;7.614;2023-04-23T03:54:22;9.70;99.90
23671;DHT22;12012;51.998;7.614;2023-04-23T03:56:50;9.70;1.00
23671;DHT22;12012;51.998;7.614;2023-04-23T03:59:15;9.70;1.00
23671;DHT22;12012;51.998;7.614;2023-04-23T04:01:42;9.80;90.70
23671;DHT22;12012;51.998;7.614;2023-04-23T04:04:07;9.80;99.90
23671;DHT22;12012;51.998;7.614;2023-04-23T04:06:33;9.80;99.90
23671;DHT22;12012;51.998;7.614;2023-04-23T04:08:59;9.80;99.90
23671;DHT22;12012;51.998;7.614;2023-04-23T04:11:24;9.80;99.90
23671;DHT22;12012;51.998;7.614;2023-04-23T04:13:51;9.80;99.90
23671;DHT22;12012;51.998;7.614;2023-04-23T04:16:16;9.80;99.90
23671;DHT22;12012;51.998;7.614;2023-04-23T04:18:42;9.80;99.90
23671;DHT22;12012;51.998;7.614;2023-04-23T04:21:07;9.80;99.90
23671;DHT22;12012;51.998;7.614;2023-04-23T04:23:33;9.80;27.20
23671;DHT22;12012;51.998;7.614;2023-04-23T04:25:59;9.80;69.50
23671;DHT22;12012;51.998;7.614;2023-04-23T04:28:24;9.80;99.90
23671;DHT22;12012;51.998;7.614;2023-04-23T04:30:52;9.80;84.60
23671;DHT22;12012;51.998;7.614;2023-04-23T04:33:18;9.80;99.90
23671;DHT22;12012;51.998;7.614;2023-04-23T04:35:45;9.80;99.90
23671;DHT22;12012;51.998;7.614;2023-04-23T04:38:13;9.80;99.90
23671;DHT22;12012;51.998;7.614;2023-04-23T04:40:39;9.80;99.90
23671;DHT22;12012;51.998;7.614;2023-04-23T04:43:05;9.80;99.90
23671;DHT22;12012;51.998;7.614;2023-04-23T04:45:30;9.80;99.90
23671;DHT22;12012;51.998;7.614;2023-04-23T04:47:56;9.80;99.90
23671;DHT22;12012;51.998;7.614;2023-04-23T04:50:22;9.80;1.00
23671;DHT22;12012;51.998;7.614;2023-04-23T04:52:48;9.80;1.00
23671;DHT22;12012;51.998;7.614;2023-04-23T04:55:14;9.80;1.00
23671;DHT22;12012;51.998;7.614;2023-04-23T04:57:39;9.90;99.90
23671;DHT22;12012;51.998;7.614;2023-04-23T05:00:37;9.90;1.00
23671;DHT22;12012;51.998;7.614;2023-04-23T05:03:03;9.90;1.00
23671;DHT22;12012;51.998;7.614;2023-04-23T05:05:29;9.90;1.00
23671;DHT22;12012;51.998;7.614;2023-04-23T05:07:54;10.00;1.00
23671;DHT22;12012;51.998;7.614;2023-04-23T05:10:23;10.00;1.00
23671;DHT22;12012;51.998;7.614;2023-04-23T05:12:49;10.00;1.00
23671;DHT22;12012;51.998;7.614;2023-04-23T05:15:16;10.00;1.00
23671;DHT22;12012;51.998;7.614;2023-04-23T05:17:42;10.00;1.00
23671;DHT22;12012;51.998;7.614;2023-04-23T05:20:08;10.00;1.00
23671;DHT22;12012;51.998;7.614;2023-04-23T05:22:41;10.00;1.00
23671;DHT22;12012;51.998;7.614;2023-04-23T05:25:08;10.00;1.00
23671;DHT22;12012;51.998;7.614;2023-04-23T05:27:34;10.00;1.00
23671;DHT22;12012;51.998;7.614;2023-04-23T05:30:05;10.10;1.00
23671;DHT22;12012;51.998;7.614;2023-04-23T05:32:31;10.10;1.00
23671;DHT22;12012;51.998;7.614;2023-04-23T05:34:57;10.10;1.00
23671;DHT22;12012;51.998;7.614;2023-04-23T05:37:24;10.10;1.00
23671;DHT22;12012;51.998;7.614;2023-04-23T05:39:50;10.20;1.00
23671;DHT22;12012;51.998;7.614;2023-04-23T05:42:15;10.20;1.00
23671;DHT22;12012;51.998;7.614;2023-04-23T05:44:41;10.20;1.00
23671;DHT22;12012;51.998;7.614;2023-04-23T05:47:07;10.20;99.90
23671;DHT22;12012;51.998;7.614;2023-04-23T05:49:34;10.30;99.90
23671;DHT22;12012;51.998;7.614;2023-04-23T05:52:00;10.30;99.90
23671;DHT22;12012;51.998;7.614;2023-04-23T05:54:27;10.30;1.00
23671;DHT22;12012;51.998;7.614;2023-04-23T05:56:53;10.30;1.00
23671;DHT22;12012;51.998;7.614;2023-04-23T05:59:18;10.40;99.90
23671;DHT22;12012;51.998;7.614;2023-04-23T06:01:44;10.50;99.90
23671;DHT22;12012;51.998;7.614;2023-04-23T06:04:10;10.50;99.90
23671;DHT22;12012;51.998;7.614;2023-04-23T06:06:36;10.60;99.90
23671;DHT22;12012;51.998;7.614;2023-04-23T06:09:01;10.70;99.90
23671;DHT22;12012;51.998;7.614;2023-04-23T06:11:27;10.80;99.90
23671;DHT22;12012;51.998;7.614;2023-04-23T06:13:52;10.80;99.90
23671;DHT22;12012;51.998;7.614;2023-04-23T06:16:18;10.90;99.90
23671;DHT22;12012;51.998;7.614;2023-04-23T06:18:44;11.00;99.90
23671;DHT22;12012;51.998;7.614;2023-04-23T06:21:09;11.00;99.90
23671;DHT22;12012;51.998;7.614;2023-04-23T06:23:36;11.10;99.90
23671;DHT22;12012;51.998;7.614;2023-04-23T06:26:01;11.20;99.90
23671;DHT22;12012;51.998;7.614;2023-04-23T06:28:28;11.30;99.90
23671;DHT22;12012;51.998;7.614;2023-04-23T06:30:54;11.40;99.90
23671;DHT22;12012;51.998;7.614;2023-04-23T06:33:19;11.40;99.90
23671;DHT22;12012;51.998;7.614;2023-04-23T06:35:45;11.50;99.90
23671;DHT22;12012;51.998;7.614;2023-04-23T06:38:11;11.60;97.90
23671;DHT22;12012;51.998;7.614;2023-04-23T06:40:36;11.70;99.90
23671;DHT22;12012;51.998;7.614;2023-04-23T06:43:02;11.80;1.00
23671;DHT22;12012;51.998;7.614;2023-04-23T06:45:33;11.90;1.00
23671;DHT22;12012;51.998;7.614;2023-04-23T06:47:59;12.00;99.90
23671;DHT22;12012;51.998;7.614;2023-04-23T06:50:25;12.10;1.00
23671;DHT22;12012;51.998;7.614;2023-04-23T06:52:51;12.20;99.90
23671;DHT22;12012;51.998;7.614;2023-04-23T06:55:17;12.40;99.90
23671;DHT22;12012;51.998;7.614;2023-04-23T06:57:44;12.60;91.60
23671;DHT22;12012;51.998;7.614;2023-04-23T07:00:10;12.80;1.00
23671;DHT22;12012;51.998;7.614;2023-04-23T07:02:36;13.10;26.40
23671;DHT22;12012;51.998;7.614;2023-04-23T07:05:02;13.40;99.90
23671;DHT22;12012;51.998;7.614;2023-04-23T07:07:28;13.60;1.00
23671;DHT22;12012;51.998;7.614;2023-04-23T07:09:53;13.90;90.00
23671;DHT22;12012;51.998;7.614;2023-04-23T07:12:19;14.00;1.00
23671;DHT22;12012;51.998;7.614;2023-04-23T07:14:44;14.10;92.10
23671;DHT22;12012;51.998;7.614;2023-04-23T07:17:10;14.20;2.70
23671;DHT22;12012;51.998;7.614;2023-04-23T07:19:36;14.40;1.00
23671;DHT22;12012;51.998;7.614;2023-04-23T07:22:02;14.50;1.00
23671;DHT22;12012;51.998;7.614;2023-04-23T07:24:27;14.70;1.00
23671;DHT22;12012;51.998;7.614;2023-04-23T07:26:53;14.80;99.90
23671;DHT22;12012;51.998;7.614;2023-04-23T07:29:19;14.90;1.00
23671;DHT22;12012;51.998;7.614;2023-04-23T07:31:45;15.00;1.00
23671;DHT22;12012;51.998;7.614;2023-04-23T07:34:11;15.10;1.00
23671;DHT22;12012;51.998;7.614;2023-04-23T07:36:37;15.20;1.00
23671;DHT22;12012;51.998;7.614;2023-04-23T07:39:03;15.20;99.90
23671;DHT22;12012;51.998;7.614;2023-04-23T07:41:30;15.30;1.00
23671;DHT22;12012;51.998;7.614;2023-04-23T07:43:56;15.30;99.90
23671;DHT22;12012;51.998;7.614;2023-04-23T07:46:21;15.30;99.90
23671;DHT22;12012;51.998;7.614;2023-04-23T07:48:47;15.30;99.90
23671;DHT22;12012;51.998;7.614;2023-04-23T07:51:12;15.30;99.90
23671;DHT22;12012;51.998;7.614;2023-04-23T07:53:38;15.30;99.90
23671;DHT22;12012;51.998;7.614;2023-04-23T07:56:04;15.30;99.90
23671;DHT22;12012;51.998;7.614;2023-04-23T07:58:30;15.40;99.90
23671;DHT22;12012;51.998;7.614;2023-04-23T08:00:57;15.50;99.90
23671;DHT22;12012;51.998;7.614;2023-04-23T08:03:23;15.50;99.90
23671;DHT22;12012;51.998;7.614;2023-04-23T08:05:48;15.50;99.90
23671;DHT22;12012;51.998;7.614;2023-04-23T08:08:14;15.50;99.90
23671;DHT22;12012;51.998;7.614;2023-04-23T08:10:39;15.40;99.90
23671;DHT22;12012;51.998;7.614;2023-04-23T08:13:05;15.50;99.90
23671;DHT22;12012;51.998;7.614;2023-04-23T08:15:31;15.60;99.90
23671;DHT22;12012;51.998;7.614;2023-04-23T08:17:56;15.80;99.90
23671;DHT22;12012;51.998;7.614;2023-04-23T08:20:22;15.90;99.90
23671;DHT22;12012;51.998;7.614;2023-04-23T08:22:47;16.10;25.90
23671;DHT22;12012;51.998;7.614;2023-04-23T08:25:14;16.20;1.00
23671;DHT22;12012;51.998;7.614;2023-04-23T08:27:40;16.50;1.00
23671;DHT22;12012;51.998;7.614;2023-04-23T08:30:06;16.80;1.00
23671;DHT22;12012;51.998;7.614;2023-04-23T08:32:33;17.00;1.00
23671;DHT22;12012;51.998;7.614;2023-04-23T08:34:58;17.10;1.00
23671;DHT22;12012;51.998;7.614;2023-04-23T08:37:24;17.20;99.90
23671;DHT22;12012;51.998;7.614;2023-04-23T08:39:50;17.20;99.90
23671;DHT22;12012;51.998;7.614;2023-04-23T08:45:20;17.40;99.90
23671;DHT22;12012;51.998;7.614;2023-04-23T08:47:46;17.50;99.90
23671;DHT22;12012;51.998;7.614;2023-04-23T08:50:13;17.60;99.90
23671;DHT22;12012;51.998;7.614;2023-04-23T08:52:41;17.60;99.90
23671;DHT22;12012;51.998;7.614;2023-04-23T08:55:10;17.60;99.90
23671;DHT22;12012;51.998;7.614;2023-04-23T08:57:39;17.80;99.90
23671;DHT22;12012;51.998;7.614;2023-04-23T09:00:07;18.10;99.90
23671;DHT22;12012;51.998;7.614;2023-04-23T09:02:35;18.30;99.90
23671;DHT22;12012;51.998;7.614;2023-04-23T09:05:04;18.50;99.90
23671;DHT22;12012;51.998;7.614;2023-04-23T09:07:30;18.70;99.90
23671;DHT22;12012;51.998;7.614;2023-04-23T09:09:56;18.90;99.90
23671;DHT22;12012;51.998;7.614;2023-04-23T09:12:21;19.20;99.90
23671;DHT22;12012;51.998;7.614;2023-04-23T09:14:49;19.30;99.90
23671;DHT22;12012;51.998;7.614;2023-04-23T09:17:16;19.40;99.90
23671;DHT22;12012;51.998;7.614;2023-04-23T09:19:46;19.60;99.90
23671;DHT22;12012;51.998;7.614;2023-04-23T09:22:13;19.80;99.90
23671;DHT22;12012;51.998;7.614;2023-04-23T09:24:41;20.10;99.90
23671;DHT22;12012;51.998;7.614;2023-04-23T09:27:09;20.40;99.90
23671;DHT22;12012;51.998;7.614;2023-04-23T09:29:35;20.70;98.20
23671;DHT22;12012;51.998;7.614;2023-04-23T09:32:08;20.70;84.90
23671;DHT22;12012;51.998;7.614;2023-04-23T09:34:35;20.70;77.50
23671;DHT22;12012;51.998;7.614;2023-04-23T09:37:03;20.90;63.00
23671;DHT22;12012;51.998;7.614;2023-04-23T09:39:33;21.00;57.00
23671;DHT22;12012;51.998;7.614;2023-04-23T09:42:03;20.90;54.70
23671;DHT22;12012;51.998;7.614;2023-04-23T09:44:31;21.20;52.90
23671;DHT22;12012;51.998;7.614;2023-04-23T09:47:07;21.60;45.70
23671;DHT22;12012;51.998;7.614;2023-04-23T09:49:47;21.90;36.40
23671;DHT22;12012;51.998;7.614;2023-04-23T09:52:13;21.80;30.40
23671;DHT22;12012;51.998;7.614;2023-04-23T09:54:39;21.70;28.80
23671;DHT22;12012;51.998;7.614;2023-04-23T09:57:05;21.50;25.50
23671;DHT22;12012;51.998;7.614;2023-04-23T09:59:33;21.00;21.20
23671;DHT22;12012;51.998;7.614;2023-04-23T10:02:05;20.80;23.30
23671;DHT22;12012;51.998;7.614;2023-04-23T10:04:32;20.70;22.90
23671;DHT22;12012;51.998;7.614;2023-04-23T10:07:00;20.40;23.10
23671;DHT22;12012;51.998;7.614;2023-04-23T10:09:27;20.40;23.70
23671;DHT22;12012;51.998;7.614;2023-04-23T10:14:21;19.90;26.00
23671;DHT22;12012;51.998;7.614;2023-04-23T10:16:50;19.70;28.20
23671;DHT22;12012;51.998;7.614;2023-04-23T10:19:21;19.80;33.00
23671;DHT22;12012;51.998;7.614;2023-04-23T10:21:53;19.80;34.00
23671;DHT22;12012;51.998;7.614;2023-04-23T10:24:23;19.70;35.70
23671;DHT22;12012;51.998;7.614;2023-04-23T10:26:51;19.60;38.60
23671;DHT22;12012;51.998;7.614;2023-04-23T10:29:20;19.50;50.90
23671;DHT22;12012;51.998;7.614;2023-04-23T10:31:47;19.50;38.20
23671;DHT22;12012;51.998;7.614;2023-04-23T10:34:14;19.80;50.50
23671;DHT22;12012;51.998;7.614;2023-04-23T10:36:40;20.20;30.30
23671;DHT22;12012;51.998;7.614;2023-04-23T10:39:06;20.50;27.20
23671;DHT22;12012;51.998;7.614;2023-04-23T10:41:37;20.70;25.20
23671;DHT22;12012;51.998;7.614;2023-04-23T10:44:10;20.60;23.10
23671;DHT22;12012;51.998;7.614;2023-04-23T10:46:36;20.30;19.80
23671;DHT22;12012;51.998;7.614;2023-04-23T10:51:37;20.20;21.40
23671;DHT22;12012;51.998;7.614;2023-04-23T10:54:03;20.20;20.80
23671;DHT22;12012;51.998;7.614;2023-04-23T10:56:29;20.40;18.50
23671;DHT22;12012;51.998;7.614;2023-04-23T10:58:55;21.10;16.80
23671;DHT22;12012;51.998;7.614;2023-04-23T11:01:26;21.70;12.20
23671;DHT22;12012;51.998;7.614;2023-04-23T11:03:52;22.20;6.60
23671;DHT22;12012;51.998;7.614;2023-04-23T11:11:55;22.30;1.00
23671;DHT22;12012;51.998;7.614;2023-04-23T11:14:46;21.90;1.00
23671;DHT22;12012;51.998;7.614;2023-04-23T11:17:13;21.50;1.00
23671;DHT22;12012;51.998;7.614;2023-04-23T11:19:41;21.20;1.00
23671;DHT22;12012;51.998;7.614;2023-04-23T11:22:14;21.10;1.00
23671;DHT22;12012;51.998;7.614;2023-04-23T11:24:43;21.00;1.00
23671;DHT22;12012;51.998;7.614;2023-04-23T11:27:12;21.40;1.00
23671;DHT22;12012;51.998;7.614;2023-04-23T11:29:40;22.10;1.00
23671;DHT22;12012;51.998;7.614;2023-04-23T11:32:06;22.80;1.00
23671;DHT22;12012;51.998;7.614;2023-04-23T11:34:38;23.60;1.00
23671;DHT22;12012;51.998;7.614;2023-04-23T11:37:04;24.30;1.00
23671;DHT22;12012;51.998;7.614;2023-04-23T11:39:31;24.50;1.00
23671;DHT22;12012;51.998;7.614;2023-04-23T11:41:57;24.50;1.00
23671;DHT22;12012;51.998;7.614;2023-04-23T11:44:28;25.00;1.00
23671;DHT22;12012;51.998;7.614;2023-04-23T11:46:54;25.10;1.00
23671;DHT22;12012;51.998;7.614;2023-04-23T11:49:19;24.80;1.00
23671;DHT22;12012;51.998;7.614;2023-04-23T11:51:46;24.20;1.00
23671;DHT22;12012;51.998;7.614;2023-04-23T11:54:12;23.60;1.00
23671;DHT22;12012;51.998;7.614;2023-04-23T11:56:39;23.20;1.00
23671;DHT22;12012;51.998;7.614;2023-04-23T11:59:05;22.80;1.00
23671;DHT22;12012;51.998;7.614;2023-04-23T12:01:47;22.80;1.00
23671;DHT22;12012;51.998;7.614;2023-04-23T12:04:15;23.20;1.00
23671;DHT22;12012;51.998;7.614;2023-04-23T12:06:43;23.60;1.00
23671;DHT22;12012;51.998;7.614;2023-04-23T12:09:09;23.90;1.00
23671;DHT22;12012;51.998;7.614;2023-04-23T12:11:36;23.90;1.00
23671;DHT22;12012;51.998;7.614;2023-04-23T12:14:02;23.80;1.00
23671;DHT22;12012;51.998;7.614;2023-04-23T12:16:44;23.60;1.00
23671;DHT22;12012;51.998;7.614;2023-04-23T12:19:16;23.40;1.00
23671;DHT22;12012;51.998;7.614;2023-04-23T12:21:53;23.10;1.00
23671;DHT22;12012;51.998;7.614;2023-04-23T12:24:21;22.80;1.00
23671;DHT22;12012;51.998;7.614;2023-04-23T12:26:51;22.50;1.00
23671;DHT22;12012;51.998;7.614;2023-04-23T12:29:19;22.20;1.00
23671;DHT22;12012;51.998;7.614;2023-04-23T12:31:46;22.00;1.00
23671;DHT22;12012;51.998;7.614;2023-04-23T12:34:13;22.00;1.00
23671;DHT22;12012;51.998;7.614;2023-04-23T12:36:45;22.10;1.00
23671;DHT22;12012;51.998;7.614;2023-04-23T12:39:29;22.20;1.00
23671;DHT22;12012;51.998;7.614;2023-04-23T12:42:03;22.20;1.00
23671;DHT22;12012;51.998;7.614;2023-04-23T12:44:30;22.20;1.00
23671;DHT22;12012;51.998;7.614;2023-04-23T12:47:00;22.20;1.00
23671;DHT22;12012;51.998;7.614;2023-04-23T12:49:28;22.20;1.00
23671;DHT22;12012;51.998;7.614;2023-04-23T12:51:58;22.10;1.00
23671;DHT22;12012;51.998;7.614;2023-04-23T12:54:26;22.10;1.00
23671;DHT22;12012;51.998;7.614;2023-04-23T12:56:54;22.00;1.00
23671;DHT22;12012;51.998;7.614;2023-04-23T12:59:19;22.00;1.00
23671;DHT22;12012;51.998;7.614;2023-04-23T13:01:45;21.90;1.00
23671;DHT22;12012;51.998;7.614;2023-04-23T13:04:11;21.80;1.00
23671;DHT22;12012;51.998;7.614;2023-04-23T13:06:36;21.60;1.00
23671;DHT22;12012;51.998;7.614;2023-04-23T13:09:02;21.50;1.00
23671;DHT22;12012;51.998;7.614;2023-04-23T13:11:30;21.30;1.00
23671;DHT22;12012;51.998;7.614;2023-04-23T13:13:57;21.00;1.00
23671;DHT22;12012;51.998;7.614;2023-04-23T13:16:22;20.80;1.00
23671;DHT22;12012;51.998;7.614;2023-04-23T13:18:48;20.50;1.00
23671;DHT22;12012;51.998;7.614;2023-04-23T13:21:16;20.00;1.00
23671;DHT22;12012;51.998;7.614;2023-04-23T13:23:41;19.50;1.00
23671;DHT22;12012;51.998;7.614;2023-04-23T13:26:07;18.90;1.00
23671;DHT22;12012;51.998;7.614;2023-04-23T13:28:34;18.50;1.00
23671;DHT22;12012;51.998;7.614;2023-04-23T13:31:00;18.20;1.00
23671;DHT22;12012;51.998;7.614;2023-04-23T13:33:25;18.20;1.00
23671;DHT22;12012;51.998;7.614;2023-04-23T13:35:51;18.30;1.00
23671;DHT22;12012;51.998;7.614;2023-04-23T13:38:17;18.50;1.00
23671;DHT22;12012;51.998;7.614;2023-04-23T13:40:42;18.90;1.00
23671;DHT22;12012;51.998;7.614;2023-04-23T13:43:08;19.30;1.00
23671;DHT22;12012;51.998;7.614;2023-04-23T13:45:35;19.80;1.00
23671;DHT22;12012;51.998;7.614;2023-04-23T13:48:00;20.30;1.00
23671;DHT22;12012;51.998;7.614;2023-04-23T13:50:27;20.60;1.00
23671;DHT22;12012;51.998;7.614;2023-04-23T13:52:52;21.00;1.00
23671;DHT22;12012;51.998;7.614;2023-04-23T13:55:18;21.60;1.00
23671;DHT22;12012;51.998;7.614;2023-04-23T13:57:43;22.30;1.00
23671;DHT22;12012;51.998;7.614;2023-04-23T14:00:09;22.90;1.00
23671;DHT22;12012;51.998;7.614;2023-04-23T14:02:37;23.50;1.00
23671;DHT22;12012;51.998;7.614;2023-04-23T14:05:03;23.80;1.00
23671;DHT22;12012;51.998;7.614;2023-04-23T14:07:31;24.10;1.00
23671;DHT22;12012;51.998;7.614;2023-04-23T14:09:56;24.30;1.00
23671;DHT22;12012;51.998;7.614;2023-04-23T14:12:22;24.50;1.00
23671;DHT22;12012;51.998;7.614;2023-04-23T14:14:48;24.80;1.00
23671;DHT22;12012;51.998;7.614;2023-04-23T14:17:14;24.80;1.00
23671;DHT22;12012;51.998;7.614;2023-04-23T14:19:40;24.80;1.00
23671;DHT22;12012;51.998;7.614;2023-04-23T14:22:06;24.60;1.00
23671;DHT22;12012;51.998;7.614;2023-04-23T14:24:39;24.40;1.00
23671;DHT22;12012;51.998;7.614;2023-04-23T14:27:08;24.30;1.00
23671;DHT22;12012;51.998;7.614;2023-04-23T14:29:40;24.00;1.00
23671;DHT22;12012;51.998;7.614;2023-04-23T14:32:09;23.80;1.00
23671;DHT22;12012;51.998;7.614;2023-04-23T14:34:35;23.40;1.00
23671;DHT22;12012;51.998;7.614;2023-04-23T14:37:01;23.20;1.00
23671;DHT22;12012;51.998;7.614;2023-04-23T14:39:27;22.80;1.00
23671;DHT22;12012;51.998;7.614;2023-04-23T14:41:54;22.60;1.00
23671;DHT22;12012;51.998;7.614;2023-04-23T14:44:19;22.50;1.00
23671;DHT22;12012;51.998;7.614;2023-04-23T14:46:47;22.30;1.00
23671;DHT22;12012;51.998;7.614;2023-04-23T14:49:15;22.10;1.00
23671;DHT22;12012;51.998;7.614;2023-04-23T14:51:41;21.80;1.00
23671;DHT22;12012;51.998;7.614;2023-04-23T14:54:07;21.60;1.00
23671;DHT22;12012;51.998;7.614;2023-04-23T14:56:33;21.40;1.00
23671;DHT22;12012;51.998;7.614;2023-04-23T14:58:58;21.20;1.00
23671;DHT22;12012;51.998;7.614;2023-04-23T15:01:24;21.00;1.00
23671;DHT22;12012;51.998;7.614;2023-04-23T15:03:51;21.00;1.00
23671;DHT22;12012;51.998;7.614;2023-04-23T15:06:17;20.90;1.00
23671;DHT22;12012;51.998;7.614;2023-04-23T15:08:42;20.80;1.00
23671;DHT22;12012;51.998;7.614;2023-04-23T15:11:08;20.80;1.00
23671;DHT22;12012;51.998;7.614;2023-04-23T15:14:00;20.80;1.00
23671;DHT22;12012;51.998;7.614;2023-04-23T15:16:29;20.70;1.00
23671;DHT22;12012;51.998;7.614;2023-04-23T15:18:58;20.60;1.00
23671;DHT22;12012;51.998;7.614;2023-04-23T15:21:24;20.60;1.00
23671;DHT22;12012;51.998;7.614;2023-04-23T15:23:49;20.50;1.00
23671;DHT22;12012;51.998;7.614;2023-04-23T15:26:15;20.40;1.00
23671;DHT22;12012;51.998;7.614;2023-04-23T15:28:41;20.30;1.00
23671;DHT22;12012;51.998;7.614;2023-04-23T15:31:07;20.30;1.00
23671;DHT22;12012;51.998;7.614;2023-04-23T15:33:33;20.30;1.00
23671;DHT22;12012;51.998;7.614;2023-04-23T15:35:58;20.20;1.00
23671;DHT22;12012;51.998;7.614;2023-04-23T15:38:24;20.20;1.00
23671;DHT22;12012;51.998;7.614;2023-04-23T15:40:49;20.20;1.00
23671;DHT22;12012;51.998;7.614;2023-04-23T15:43:16;20.10;1.00
23671;DHT22;12012;51.998;7.614;2023-04-23T15:45:42;20.10;1.00
23671;DHT22;12012;51.998;7.614;2023-04-23T15:48:10;20.00;1.00
23671;DHT22;12012;51.998;7.614;2023-04-23T15:50:35;20.00;1.00